Time;durP1;ratioP1;P1;durP2;ratioP2;P2;SDS_P1;SDS_P2;PMS_P1;PMS_P2;Temp;Humidity;BMP_temperature;BMP_pressure;BME280_temperature;BME280_humidity;BME280_pressure;Samples;Min_cycle;Max_cycle;Signal;HPM_P1;HPM_P2
2022/07/24 00:00:57;;;;;;;1.53;1.43;;;16.20;82.80;;;;;;5209090;28;20194;-48
2022/07/24 00:03:28;;;;;;;2.10;2.00;;;16.20;82.70;;;;;;5222269;28;20171;-48
2022/07/24 00:05:59;;;;;;;2.77;2.07;;;16.20;83.60;;;;;;5221657;28;20472;-47
2022/07/24 00:08:29;;;;;;;1.60;1.50;;;16.10;84.20;;;;;;5211374;28;20647;-49
2022/07/24 00:11:00;;;;;;;1.77;1.67;;;16.20;84.80;;;;;;5215791;28;20558;-49
2022/07/24 00:13:30;;;;;;;1.10;1.10;;;16.10;85.00;;;;;;5219742;28;20187;-47
2022/07/24 00:16:01;;;;;;;3.13;1.93;;;16.10;85.40;;;;;;5221853;28;20175;-49
2022/07/24 00:18:32;;;;;;;2.50;1.50;;;16.10;86.20;;;;;;5210107;28;20194;-48
2022/07/24 00:21:03;;;;;;;4.80;1.77;;;16.00;87.00;;;;;;5219067;28;20721;-48
2022/07/24 00:23:34;;;;;;;1.90;1.90;;;16.00;88.10;;;;;;5223373;28;21039;-47
2022/07/24 00:26:05;;;;;;;1.70;1.50;;;16.00;88.50;;;;;;5198925;28;20454;-48
2022/07/24 00:28:35;;;;;;;1.83;1.83;;;15.90;88.90;;;;;;5215487;28;20179;-47
2022/07/24 00:31:06;;;;;;;1.33;1.23;;;15.90;88.90;;;;;;5207434;28;20245;-48
2022/07/24 00:33:37;;;;;;;1.00;1.00;;;15.90;89.60;;;;;;5225009;28;20673;-47
2022/07/24 00:36:07;;;;;;;1.30;1.30;;;15.90;90.10;;;;;;5221186;28;20187;-47
2022/07/24 00:38:38;;;;;;;3.90;1.20;;;15.80;90.60;;;;;;5221421;28;20186;-48
2022/07/24 00:41:09;;;;;;;1.10;1.10;;;15.80;91.10;;;;;;5207978;28;20461;-48
2022/07/24 00:44:07;;;;;;;0.87;0.87;;;15.80;91.70;;;;;;5216898;28;20179;-48
2022/07/24 00:46:39;;;;;;;1.10;1.10;;;15.80;91.90;;;;;;5226353;28;20226;-48
2022/07/24 00:49:12;;;;;;;0.90;0.90;;;15.80;92.50;;;;;;5222257;28;20908;-47
2022/07/24 00:51:45;;;;;;;1.20;1.20;;;15.80;93.10;;;;;;5211957;28;20888;-47
2022/07/24 00:54:18;;;;;;;2.03;1.60;;;15.70;92.80;;;;;;5208456;28;20945;-48
2022/07/24 00:56:52;;;;;;;1.47;1.37;;;15.70;93.30;;;;;;5221858;28;20795;-47
2022/07/24 00:59:23;;;;;;;1.97;1.20;;;15.60;93.90;;;;;;5207527;28;20494;-47
2022/07/24 01:01:53;;;;;;;3.50;1.53;;;15.60;94.50;;;;;;5225338;28;20976;-47
2022/07/24 01:04:24;;;;;;;1.03;1.03;;;15.60;95.10;;;;;;5207656;28;20430;-48
2022/07/24 01:06:55;;;;;;;3.87;1.37;;;15.50;95.50;;;;;;5206641;28;20207;-47
2022/07/24 01:09:25;;;;;;;2.07;1.97;;;15.50;96.00;;;;;;5223100;28;20179;-48
2022/07/24 01:11:57;;;;;;;2.17;1.63;;;15.50;96.40;;;;;;5224826;28;20226;-47
2022/07/24 01:14:27;;;;;;;2.00;1.30;;;15.40;96.90;;;;;;5205224;28;22421;-47
2022/07/24 01:16:58;;;;;;;4.30;1.67;;;15.40;97.70;;;;;;5216811;28;20551;-48
2022/07/24 01:19:29;;;;;;;1.60;1.60;;;15.40;97.90;;;;;;5215809;28;20188;-48
2022/07/24 01:21:59;;;;;;;1.40;1.30;;;15.30;98.60;;;;;;5219296;28;20233;-48
2022/07/24 01:24:30;;;;;;;1.30;1.30;;;15.30;99.40;;;;;;5216609;28;20175;-48
2022/07/24 01:27:01;;;;;;;2.23;1.70;;;15.30;99.80;;;;;;5198739;28;20658;-47
2022/07/24 01:29:31;;;;;;;1.30;1.30;;;15.20;99.90;;;;;;5224765;28;20187;-48
2022/07/24 01:32:02;;;;;;;1.70;1.60;;;15.20;99.90;;;;;;5221108;28;20207;-48
2022/07/24 01:34:32;;;;;;;1.53;1.53;;;15.20;99.90;;;;;;5211593;28;20189;-49
2022/07/24 01:37:03;;;;;;;1.73;1.70;;;15.20;99.90;;;;;;5226003;28;20541;-48
2022/07/24 01:39:34;;;;;;;1.30;1.30;;;15.20;99.90;;;;;;5207915;28;20184;-48
2022/07/24 01:42:04;;;;;;;1.70;1.70;;;15.20;99.90;;;;;;5225165;28;20237;-48
2022/07/24 01:44:35;;;;;;;1.07;1.07;;;15.20;99.90;;;;;;5225438;28;20241;-49
2022/07/24 01:47:06;;;;;;;1.60;1.20;;;15.20;99.90;;;;;;5208109;28;20238;-48
2022/07/24 01:49:36;;;;;;;2.23;2.03;;;15.20;99.90;;;;;;5225057;28;20225;-48
2022/07/24 01:52:07;;;;;;;2.30;1.67;;;15.10;99.90;;;;;;5214851;28;20199;-48
2022/07/24 01:54:37;;;;;;;2.90;1.90;;;15.10;99.90;;;;;;5214307;28;20183;-47
2022/07/24 01:57:08;;;;;;;1.43;1.33;;;15.10;99.90;;;;;;5213443;28;20309;-47
2022/07/24 01:59:39;;;;;;;2.10;1.30;;;15.10;99.90;;;;;;5223149;28;20179;-47
2022/07/24 02:02:09;;;;;;;2.60;1.20;;;15.00;99.90;;;;;;5223791;28;20514;-48
2022/07/24 02:04:40;;;;;;;2.60;1.23;;;15.00;99.90;;;;;;5202335;28;20191;-47
2022/07/24 02:07:11;;;;;;;1.13;1.13;;;15.00;99.90;;;;;;5218729;28;20676;-47
2022/07/24 02:09:41;;;;;;;5.70;1.67;;;15.00;99.90;;;;;;5206798;28;21327;-47
2022/07/24 02:12:12;;;;;;;1.53;1.43;;;15.00;99.90;;;;;;5221845;28;20671;-47
2022/07/24 02:14:42;;;;;;;1.10;1.10;;;14.90;99.90;;;;;;5201641;28;20209;-46
2022/07/24 02:17:13;;;;;;;1.60;1.50;;;14.90;99.90;;;;;;5223693;28;20198;-49
2022/07/24 02:19:44;;;;;;;1.30;1.20;;;14.80;99.90;;;;;;5223070;28;20183;-46
2022/07/24 02:22:14;;;;;;;1.13;1.13;;;14.80;99.90;;;;;;5201583;28;20242;-46
2022/07/24 02:24:45;;;;;;;1.13;1.13;;;14.80;99.90;;;;;;5225472;28;20194;-47
2022/07/24 02:27:16;;;;;;;1.17;1.10;;;14.70;99.90;;;;;;5224004;28;20202;-47
2022/07/24 02:29:46;;;;;;;2.43;1.23;;;14.70;99.90;;;;;;5221036;28;20675;-47
2022/07/24 02:32:17;;;;;;;1.27;0.83;;;14.70;99.90;;;;;;5215922;28;20639;-47
2022/07/24 02:34:48;;;;;;;1.20;1.20;;;14.60;99.90;;;;;;5211018;28;20551;-45
2022/07/24 02:37:18;;;;;;;7.73;1.03;;;14.50;99.90;;;;;;5222292;28;20271;-46
2022/07/24 02:39:49;;;;;;;1.40;1.30;;;14.50;99.90;;;;;;5218552;28;20176;-45
2022/07/24 02:42:19;;;;;;;2.77;1.53;;;14.50;99.90;;;;;;5227696;28;20203;-46
2022/07/24 02:44:50;;;;;;;4.70;1.37;;;14.50;99.90;;;;;;5201854;28;20275;-46
2022/07/24 02:47:21;;;;;;;3.60;3.30;;;14.50;99.90;;;;;;5213616;28;20631;-46
2022/07/24 02:49:51;;;;;;;1.07;1.07;;;14.40;99.90;;;;;;5218738;28;20196;-46
2022/07/24 02:52:22;;;;;;;1.30;1.30;;;14.50;99.90;;;;;;5221202;28;20234;-47
2022/07/24 02:54:52;;;;;;;3.03;1.00;;;14.50;99.90;;;;;;5222514;28;20191;-46
2022/07/24 02:57:23;;;;;;;1.63;1.63;;;14.40;99.90;;;;;;5223262;28;20197;-45
2022/07/24 02:59:53;;;;;;;1.70;1.60;;;14.40;99.90;;;;;;5206816;28;20237;-45
2022/07/24 03:02:24;;;;;;;1.00;1.00;;;14.40;99.90;;;;;;5211771;28;20205;-47
2022/07/24 03:04:55;;;;;;;6.53;0.90;;;14.40;99.90;;;;;;5225332;28;20258;-46
2022/07/24 03:07:25;;;;;;;1.50;1.50;;;14.40;99.90;;;;;;5212084;28;20205;-47
2022/07/24 03:09:56;;;;;;;3.40;1.43;;;14.40;99.90;;;;;;5209403;28;20211;-45
2022/07/24 03:12:26;;;;;;;1.60;1.43;;;14.40;99.90;;;;;;5210953;28;20282;-52
2022/07/24 03:14:57;;;;;;;1.90;1.60;;;14.40;99.90;;;;;;5221716;28;20184;-46
2022/07/24 03:17:28;;;;;;;1.17;1.00;;;14.40;99.90;;;;;;5221005;28;20183;-48
2022/07/24 03:19:58;;;;;;;1.37;1.27;;;14.40;99.90;;;;;;5201949;28;20218;-46
2022/07/24 03:22:29;;;;;;;1.93;1.50;;;14.40;99.90;;;;;;5253313;22;20228;-47
2022/07/24 03:25:01;;;;;;;1.53;1.43;;;14.40;99.90;;;;;;5260386;28;20209;-47
2022/07/24 03:27:31;;;;;;;2.00;1.47;;;14.40;99.90;;;;;;5259570;28;20201;-48
2022/07/24 03:30:03;;;;;;;1.13;1.13;;;14.30;99.90;;;;;;5261623;28;21011;-47
2022/07/24 03:32:34;;;;;;;1.57;1.27;;;14.30;99.90;;;;;;5262491;28;20681;-47
2022/07/24 03:35:05;;;;;;;1.87;1.40;;;14.40;99.90;;;;;;5261545;28;20430;-48
2022/07/24 03:37:36;;;;;;;4.60;1.80;;;14.40;99.90;;;;;;5257094;28;20189;-46
2022/07/24 03:40:07;;;;;;;7.17;1.30;;;14.40;99.90;;;;;;5250608;28;20795;-49
2022/07/24 03:42:38;;;;;;;2.13;1.40;;;14.40;99.90;;;;;;5259989;28;20202;-47
2022/07/24 03:45:09;;;;;;;2.83;1.43;;;14.40;99.90;;;;;;5254168;28;20446;-47
2022/07/24 03:47:39;;;;;;;2.63;1.60;;;14.40;99.90;;;;;;5260657;28;20699;-46
2022/07/24 03:50:10;;;;;;;2.97;1.23;;;14.30;99.90;;;;;;5244825;28;20182;-47
2022/07/24 03:52:41;;;;;;;1.67;1.67;;;14.40;99.90;;;;;;5258365;28;20221;-47
2022/07/24 03:55:11;;;;;;;1.10;1.10;;;14.30;99.90;;;;;;5256842;28;20679;-47
2022/07/24 03:57:42;;;;;;;1.83;1.40;;;14.40;99.90;;;;;;5261536;28;20178;-48
2022/07/24 04:00:13;;;;;;;2.77;1.53;;;14.40;99.90;;;;;;5256846;28;20185;-47
2022/07/24 04:02:44;;;;;;;1.50;1.40;;;14.40;99.90;;;;;;5259372;28;20277;-47
2022/07/24 04:05:14;;;;;;;4.13;1.50;;;14.50;99.90;;;;;;5259916;28;20539;-48
2022/07/24 04:07:45;;;;;;;1.60;1.60;;;14.50;99.90;;;;;;5260130;28;20206;-46
2022/07/24 04:10:16;;;;;;;4.43;1.60;;;14.50;99.90;;;;;;5258363;28;20219;-46
2022/07/24 04:12:46;;;;;;;1.20;1.20;;;14.50;99.90;;;;;;5275318;28;20274;-47
2022/07/24 04:15:17;;;;;;;7.93;2.03;;;14.60;99.90;;;;;;5280221;28;20271;-47
2022/07/24 04:17:47;;;;;;;1.30;1.30;;;14.70;99.90;;;;;;5264221;28;20188;-47
2022/07/24 04:20:18;;;;;;;1.20;1.10;;;14.70;99.90;;;;;;5266307;28;20213;-46
2022/07/24 04:22:49;;;;;;;1.20;1.10;;;14.70;99.90;;;;;;5266046;28;21273;-47
2022/07/24 04:25:19;;;;;;;1.67;1.67;;;14.80;99.90;;;;;;5263106;28;20201;-47
2022/07/24 04:27:50;;;;;;;1.90;1.80;;;14.90;99.90;;;;;;5264918;28;20216;-47
2022/07/24 04:30:20;;;;;;;1.90;1.73;;;14.90;99.90;;;;;;5264240;28;20212;-46
2022/07/24 04:32:51;;;;;;;1.67;1.67;;;15.00;99.90;;;;;;5262670;28;20201;-46
2022/07/24 04:35:22;;;;;;;3.70;1.43;;;15.00;99.90;;;;;;5268470;28;20207;-47
2022/07/24 04:37:52;;;;;;;1.53;1.20;;;15.10;99.90;;;;;;5261322;28;20189;-46
2022/07/24 04:40:23;;;;;;;1.40;1.40;;;15.20;99.90;;;;;;5265945;28;20484;-47
2022/07/24 04:42:54;;;;;;;5.17;1.23;;;15.20;99.90;;;;;;5259430;28;20201;-46
2022/07/24 04:45:25;;;;;;;1.63;1.40;;;15.30;99.90;;;;;;5262865;28;20724;-46
2022/07/24 04:47:55;;;;;;;4.20;1.37;;;15.30;99.90;;;;;;5262872;28;20561;-47
2022/07/24 04:50:26;;;;;;;2.63;1.27;;;15.40;99.90;;;;;;5257531;28;20552;-48
2022/07/24 04:52:56;;;;;;;1.13;1.03;;;15.50;99.90;;;;;;5257991;28;20261;-48
2022/07/24 04:55:27;;;;;;;1.27;1.20;;;15.50;99.90;;;;;;5261219;28;20555;-47
2022/07/24 04:57:58;;;;;;;1.27;1.13;;;15.60;99.90;;;;;;5261331;28;20240;-47
2022/07/24 05:00:29;;;;;;;0.80;0.80;;;15.80;99.90;;;;;;5259244;28;20448;-49
2022/07/24 05:03:00;;;;;;;1.00;0.90;;;16.10;99.90;;;;;;5253682;28;20270;-46
2022/07/24 05:05:30;;;;;;;4.63;1.07;;;16.50;99.90;;;;;;5261115;28;20186;-48
2022/07/24 05:08:01;;;;;;;1.13;1.13;;;17.00;99.90;;;;;;5264513;28;20636;-47
2022/07/24 05:10:31;;;;;;;1.30;1.20;;;17.50;99.90;;;;;;5265431;28;20503;-47
2022/07/24 05:13:02;;;;;;;2.30;0.80;;;18.50;99.90;;;;;;5265345;28;20206;-47
2022/07/24 05:15:33;;;;;;;1.47;0.90;;;19.40;94.20;;;;;;5262873;28;20232;-47
2022/07/24 05:18:03;;;;;;;0.90;0.90;;;20.30;90.60;;;;;;5279110;28;20227;-49
2022/07/24 05:20:34;;;;;;;1.10;1.10;;;21.40;80.40;;;;;;5259822;28;20546;-47
2022/07/24 05:23:04;;;;;;;0.70;0.70;;;21.80;72.70;;;;;;5263182;28;20304;-47
2022/07/24 05:25:35;;;;;;;1.00;1.00;;;22.10;69.10;;;;;;5265681;28;20190;-46
2022/07/24 05:28:06;;;;;;;1.37;0.70;;;22.70;64.30;;;;;;5265005;28;20279;-46
2022/07/24 05:30:36;;;;;;;1.20;1.10;;;23.10;61.80;;;;;;5275044;28;20193;-47
2022/07/24 05:33:07;;;;;;;0.77;0.77;;;24.40;58.70;;;;;;5267455;28;20638;-47
2022/07/24 05:35:38;;;;;;;0.80;0.80;;;26.20;53.00;;;;;;5260367;28;20193;-47
2022/07/24 05:38:08;;;;;;;0.77;0.70;;;27.50;47.70;;;;;;5259935;28;20648;-48
2022/07/24 05:40:39;;;;;;;1.37;0.80;;;28.40;44.30;;;;;;5260262;28;20190;-47
2022/07/24 05:43:09;;;;;;;1.20;0.70;;;27.50;43.50;;;;;;5260156;28;20201;-47
2022/07/24 05:45:40;;;;;;;0.90;0.90;;;28.40;43.30;;;;;;5263792;28;20189;-46
2022/07/24 05:48:10;;;;;;;0.90;0.90;;;29.40;41.80;;;;;;5259830;28;20244;-47
2022/07/24 05:50:41;;;;;;;0.90;0.80;;;29.40;39.70;;;;;;5269195;28;20648;-47
2022/07/24 05:53:12;;;;;;;0.90;0.90;;;30.20;39.10;;;;;;5270785;28;20213;-46
2022/07/24 05:55:42;;;;;;;0.67;0.67;;;30.90;37.60;;;;;;5264023;28;20188;-47
2022/07/24 05:58:13;;;;;;;0.50;0.50;;;31.70;36.30;;;;;;5265569;28;20656;-47
2022/07/24 06:00:44;;;;;;;0.60;0.60;;;32.70;34.80;;;;;;5257622;28;20517;-46
2022/07/24 06:03:14;;;;;;;0.73;0.73;;;33.60;33.10;;;;;;5263058;28;20216;-47
2022/07/24 06:05:45;;;;;;;0.63;0.63;;;33.70;31.90;;;;;;5255812;28;20629;-47
2022/07/24 06:08:16;;;;;;;1.03;0.60;;;34.00;31.60;;;;;;5253658;28;20295;-48
2022/07/24 06:10:46;;;;;;;1.70;0.87;;;33.50;31.10;;;;;;5255729;28;20193;-47
2022/07/24 06:13:17;;;;;;;0.87;0.60;;;32.50;32.50;;;;;;5263284;28;20213;-47
2022/07/24 06:15:47;;;;;;;0.50;0.50;;;33.00;32.00;;;;;;5264378;28;20259;-47
2022/07/24 06:18:18;;;;;;;2.00;0.80;;;33.40;31.20;;;;;;5261105;28;20280;-47
2022/07/24 06:20:49;;;;;;;0.60;0.47;;;32.90;31.20;;;;;;5260985;28;20664;-48
2022/07/24 06:23:19;;;;;;;0.77;0.77;;;33.40;31.30;;;;;;5270014;28;20216;-48
2022/07/24 06:25:50;;;;;;;2.63;0.60;;;34.00;30.30;;;;;;5256317;28;20188;-46
2022/07/24 06:28:20;;;;;;;0.60;0.60;;;34.00;29.70;;;;;;5258139;28;20204;-47
2022/07/24 06:30:51;;;;;;;1.27;1.27;;;33.60;30.20;;;;;;5243262;28;20180;-47
2022/07/24 06:33:21;;;;;;;0.50;0.50;;;34.00;30.40;;;;;;5260337;28;20197;-48
2022/07/24 06:35:52;;;;;;;1.17;1.00;;;33.90;29.60;;;;;;5263551;28;20560;-49
2022/07/24 06:38:23;;;;;;;0.50;0.50;;;32.90;30.70;;;;;;5271597;28;20664;-48
2022/07/24 06:40:53;;;;;;;0.40;0.40;;;33.30;30.50;;;;;;5256179;28;20181;-47
2022/07/24 06:43:24;;;;;;;0.57;0.57;;;34.00;30.00;;;;;;5254094;28;20211;-48
2022/07/24 06:45:54;;;;;;;1.23;0.70;;;34.90;29.50;;;;;;5248488;28;20189;-48
2022/07/24 06:48:25;;;;;;;0.70;0.70;;;35.60;28.30;;;;;;5266872;28;20306;-47
2022/07/24 06:50:55;;;;;;;0.60;0.60;;;35.90;28.30;;;;;;5264541;28;20250;-47
2022/07/24 06:53:27;;;;;;;0.60;0.60;;;35.80;28.00;;;;;;5262212;28;20193;-47
2022/07/24 06:55:57;;;;;;;1.13;0.80;;;35.20;28.10;;;;;;5260289;28;20196;-47
2022/07/24 06:58:28;;;;;;;1.57;1.00;;;34.50;28.80;;;;;;5259917;28;20729;-46
2022/07/24 07:00:58;;;;;;;0.60;0.60;;;33.40;29.40;;;;;;5258418;28;20193;-48
2022/07/24 07:03:29;;;;;;;1.27;0.60;;;33.50;30.20;;;;;;5261602;28;20169;-48
2022/07/24 07:06:00;;;;;;;1.50;1.10;;;34.30;29.50;;;;;;5262747;28;20185;-47
2022/07/24 07:08:30;;;;;;;3.40;0.50;;;35.40;28.70;;;;;;5263640;28;20177;-47
2022/07/24 07:11:01;;;;;;;0.82;0.70;;;36.30;27.70;;;;;;5262254;28;20188;-47
2022/07/24 07:13:31;;;;;;;0.65;0.65;;;36.80;27.50;;;;;;5260023;28;21398;-49
2022/07/24 07:16:03;;;;;;;0.60;0.60;;;37.00;26.80;;;;;;5258975;28;20227;-47
2022/07/24 07:18:35;;;;;;;0.50;0.50;;;36.60;27.80;;;;;;5263857;28;20315;-45
2022/07/24 07:21:06;;;;;;;0.85;0.60;;;36.90;27.00;;;;;;5258745;28;20173;-51
2022/07/24 07:23:37;;;;;;;0.60;0.60;;;36.50;27.00;;;;;;5256049;28;20230;-45
2022/07/24 07:26:08;;;;;;;1.60;0.75;;;35.60;27.50;;;;;;5260693;28;20193;-45
2022/07/24 07:28:38;;;;;;;1.10;1.00;;;35.50;27.50;;;;;;5265035;28;20184;-45
2022/07/24 07:31:09;;;;;;;1.10;1.00;;;34.50;27.90;;;;;;5259214;28;20236;-47
2022/07/24 07:33:39;;;;;;;4.60;0.70;;;34.10;28.40;;;;;;5259838;28;20223;-47
2022/07/24 07:36:10;;;;;;;0.50;0.50;;;34.50;27.90;;;;;;5260066;28;20185;-47
2022/07/24 07:38:41;;;;;;;0.93;0.93;;;34.10;28.30;;;;;;5257461;28;20228;-45
2022/07/24 07:41:14;;;;;;;0.50;0.50;;;33.50;28.80;;;;;;5255427;28;20174;-46
2022/07/24 07:43:49;;;;;;;0.50;0.50;;;34.00;28.90;;;;;;5260210;28;20264;-46
2022/07/24 07:46:19;;;;;;;0.60;0.60;;;34.30;27.90;;;;;;5262713;28;20209;-48
2022/07/24 07:48:50;;;;;;;0.93;0.90;;;35.20;27.40;;;;;;5278180;28;20176;-46
2022/07/24 07:51:20;;;;;;;0.90;0.90;;;35.60;27.00;;;;;;5269825;28;20246;-47
2022/07/24 07:53:51;;;;;;;3.30;0.83;;;36.20;26.10;;;;;;5269030;28;20185;-47
2022/07/24 07:56:21;;;;;;;0.50;0.50;;;36.40;26.20;;;;;;5267228;28;20224;-45
2022/07/24 07:58:52;;;;;;;1.13;0.80;;;35.90;26.40;;;;;;5260641;28;20178;-46
2022/07/24 08:01:23;;;;;;;0.50;0.50;;;36.40;25.90;;;;;;5262368;28;20943;-46
2022/07/24 08:03:53;;;;;;;0.90;0.60;;;35.50;27.00;;;;;;5258196;28;20492;-46
2022/07/24 08:06:24;;;;;;;0.73;0.67;;;35.40;26.10;;;;;;5260971;28;20265;-47
2022/07/24 08:08:55;;;;;;;0.80;0.80;;;35.20;26.70;;;;;;5258994;28;20347;-46
2022/07/24 08:11:26;;;;;;;0.90;0.90;;;36.00;26.40;;;;;;5258887;28;20214;-47
2022/07/24 08:13:56;;;;;;;0.80;0.80;;;36.80;25.40;;;;;;5262442;28;20688;-51
2022/07/24 08:16:27;;;;;;;0.60;0.50;;;36.70;25.70;;;;;;5256380;28;20280;-48
2022/07/24 08:18:58;;;;;;;0.60;0.60;;;37.20;25.30;;;;;;5261404;28;20671;-47
2022/07/24 08:21:29;;;;;;;1.30;0.70;;;37.40;25.00;;;;;;5257311;28;20597;-47
2022/07/24 08:23:59;;;;;;;0.88;0.75;;;37.90;24.90;;;;;;5258066;28;20177;-47
2022/07/24 08:26:30;;;;;;;0.73;0.73;;;37.60;23.70;;;;;;5251149;28;20235;-49
2022/07/24 08:29:01;;;;;;;4.40;0.60;;;35.40;25.00;;;;;;5262261;28;20234;-50
2022/07/24 08:31:32;;;;;;;0.75;0.75;;;35.00;26.10;;;;;;5266827;28;20195;-46
2022/07/24 08:34:02;;;;;;;0.57;0.57;;;35.60;25.90;;;;;;5255064;28;20280;-47
2022/07/24 08:36:33;;;;;;;0.50;0.50;;;36.00;25.00;;;;;;5260618;28;20207;-46
2022/07/24 08:39:03;;;;;;;1.35;1.25;;;36.20;24.90;;;;;;5260774;28;20189;-46
2022/07/24 08:41:35;;;;;;;0.83;0.83;;;35.10;25.10;;;;;;5271596;28;20227;-46
2022/07/24 08:44:06;;;;;;;0.63;0.63;;;34.10;26.20;;;;;;5265470;28;20212;-48
2022/07/24 08:46:38;;;;;;;0.73;0.73;;;34.20;26.40;;;;;;5262449;28;20243;-46
2022/07/24 08:49:13;;;;;;;0.97;0.70;;;35.00;25.50;;;;;;5264802;28;20211;-47
2022/07/24 08:51:44;;;;;;;0.73;0.73;;;34.60;25.50;;;;;;5268469;28;20207;-47
2022/07/24 08:54:15;;;;;;;1.30;1.30;;;34.70;26.20;;;;;;5263700;28;20173;-46
2022/07/24 08:56:45;;;;;;;0.50;0.50;;;33.30;27.10;;;;;;5253743;28;20323;-46
2022/07/24 08:59:18;;;;;;;1.10;1.10;;;32.10;28.30;;;;;;5256226;28;20628;-47
2022/07/24 09:01:50;;;;;;;1.10;1.00;;;30.50;29.80;;;;;;5266026;28;20212;-48
2022/07/24 09:04:47;;;;;;;0.93;0.93;;;28.50;32.00;;;;;;5264753;28;20820;-46
2022/07/24 09:07:22;;;;;;;1.37;0.70;;;26.90;34.80;;;;;;5266884;28;20467;-46
2022/07/24 09:10:07;;;;;;;1.03;1.03;;;26.00;37.20;;;;;;5264051;28;20431;-46
2022/07/24 09:12:41;;;;;;;2.20;0.90;;;25.70;38.50;;;;;;5251518;28;20452;-47
2022/07/24 09:15:13;;;;;;;1.00;0.83;;;25.30;38.80;;;;;;5266643;28;20435;-46
2022/07/24 09:17:51;;;;;;;4.87;0.70;;;25.00;38.90;;;;;;5268127;28;20499;-45
2022/07/24 09:20:24;;;;;;;0.70;0.70;;;24.90;39.90;;;;;;5268232;28;20439;-48
2022/07/24 09:22:59;;;;;;;1.80;1.37;;;24.80;39.70;;;;;;5261163;28;20464;-46
2022/07/24 09:25:30;;;;;;;7.20;1.10;;;24.80;40.00;;;;;;5267029;28;20539;-46
2022/07/24 09:28:03;;;;;;;0.73;0.73;;;25.00;39.20;;;;;;5266065;28;20863;-46
2022/07/24 09:30:36;;;;;;;0.70;0.70;;;24.90;40.10;;;;;;5268879;28;20228;-46
2022/07/24 09:33:13;;;;;;;4.33;0.90;;;24.90;39.80;;;;;;5268752;28;20452;-46
2022/07/24 09:35:47;;;;;;;2.50;1.00;;;25.10;39.70;;;;;;5267316;28;20804;-46
2022/07/24 09:38:21;;;;;;;0.90;0.90;;;25.10;39.40;;;;;;5267289;28;20513;-46
2022/07/24 09:40:54;;;;;;;0.70;0.70;;;25.00;39.50;;;;;;5267292;28;20622;-46
2022/07/24 09:43:30;;;;;;;0.77;0.77;;;24.90;39.60;;;;;;5265180;28;20489;-46
2022/07/24 09:46:02;;;;;;;0.80;0.80;;;24.80;40.40;;;;;;5263128;28;20813;-46
2022/07/24 09:49:00;;;;;;;0.97;0.90;;;24.70;40.20;;;;;;5268484;28;20467;-47
2022/07/24 09:51:31;;;;;;;5.10;2.03;;;24.50;40.40;;;;;;5254656;28;21002;-46
2022/07/24 09:54:02;;;;;;;0.90;0.90;;;24.60;40.70;;;;;;5258168;28;20441;-48
2022/07/24 09:56:35;;;;;;;0.87;0.87;;;24.60;40.90;;;;;;5267817;28;20507;-47
2022/07/24 09:59:07;;;;;;;0.73;0.73;;;24.70;41.40;;;;;;5266323;28;20553;-47
2022/07/24 10:01:42;;;;;;;1.33;1.23;;;24.70;41.60;;;;;;5258764;28;20436;-49
2022/07/24 10:04:16;;;;;;;0.70;0.70;;;24.70;40.80;;;;;;5267452;28;20502;-47
2022/07/24 10:06:47;;;;;;;10.07;4.80;;;24.70;40.90;;;;;;5266788;28;20542;-47
2022/07/24 10:09:24;;;;;;;1.37;1.10;;;24.70;40.90;;;;;;5264598;28;20942;-46
2022/07/24 10:11:57;;;;;;;0.60;0.60;;;24.60;40.50;;;;;;5265891;28;20827;-45
2022/07/24 10:14:27;;;;;;;1.20;1.20;;;24.60;41.40;;;;;;5263181;28;20875;-47
2022/07/24 10:17:06;;;;;;;5.47;3.80;;;24.60;40.50;;;;;;5260868;28;20432;-46
2022/07/24 10:19:45;;;;;;;7.00;3.23;;;24.60;40.20;;;;;;5265196;28;20190;-46
2022/07/24 10:22:21;;;;;;;2.43;1.80;;;24.60;41.10;;;;;;5268349;28;20458;-47
2022/07/24 10:24:58;;;;;;;1.07;1.07;;;24.60;41.30;;;;;;5264049;28;20443;-47
2022/07/24 10:27:34;;;;;;;1.13;1.00;;;24.80;41.30;;;;;;5258004;28;20470;-47
2022/07/24 10:30:07;;;;;;;0.97;0.90;;;24.70;40.80;;;;;;5263489;28;20533;-47
2022/07/24 10:32:39;;;;;;;0.70;0.67;;;24.80;41.10;;;;;;5267955;28;20986;-46
2022/07/24 10:35:24;;;;;;;1.43;1.43;;;24.80;41.70;;;;;;5263548;28;20427;-46
2022/07/24 10:37:57;;;;;;;1.60;1.50;;;24.90;42.00;;;;;;5259515;28;20419;-47
2022/07/24 10:40:42;;;;;;;1.30;1.30;;;25.00;42.30;;;;;;5269160;28;20420;-46
2022/07/24 10:43:15;;;;;;;2.47;2.17;;;25.00;41.80;;;;;;5255391;28;20478;-47
2022/07/24 10:45:55;;;;;;;6.50;1.30;;;25.00;41.60;;;;;;5256960;28;21104;-47
2022/07/24 10:48:28;;;;;;;1.00;1.00;;;24.90;41.40;;;;;;5256061;28;20565;-48
2022/07/24 10:50:59;;;;;;;1.70;1.33;;;24.80;42.20;;;;;;5267852;28;20454;-47
2022/07/24 10:53:35;;;;;;;1.40;1.30;;;24.70;42.50;;;;;;5264881;28;20512;-47
2022/07/24 10:56:28;;;;;;;1.43;1.43;;;24.60;42.70;;;;;;5267177;28;20203;-46
2022/07/24 10:59:08;;;;;;;4.43;3.70;;;24.50;41.80;;;;;;5267228;28;20934;-47
2022/07/24 11:01:47;;;;;;;2.83;2.23;;;24.40;42.60;;;;;;5255573;28;20447;-47
2022/07/24 11:04:18;;;;;;;1.17;1.17;;;24.30;43.00;;;;;;5268123;28;20412;-47
2022/07/24 11:06:59;;;;;;;4.87;4.43;;;24.40;43.10;;;;;;5257112;28;20455;-46
2022/07/24 11:09:29;;;;;;;5.70;3.50;;;24.50;43.00;;;;;;5263561;28;20182;-48
2022/07/24 11:12:00;;;;;;;2.00;1.50;;;24.50;42.70;;;;;;5266298;28;20573;-50
2022/07/24 11:14:36;;;;;;;2.10;1.80;;;24.40;42.70;;;;;;5261173;28;20179;-45
2022/07/24 11:17:37;;;;;;;1.73;1.60;;;24.50;42.90;;;;;;5266647;28;20192;-47
2022/07/24 11:20:16;;;;;;;1.53;1.50;;;24.50;42.80;;;;;;5267186;28;20419;-46
2022/07/24 11:22:55;;;;;;;1.20;1.20;;;24.70;42.70;;;;;;5268819;28;20907;-46
2022/07/24 11:25:27;;;;;;;1.43;1.33;;;24.70;41.90;;;;;;5272467;28;20419;-46
2022/07/24 11:28:18;;;;;;;0.93;0.93;;;24.50;41.70;;;;;;5270714;28;20459;-44
2022/07/24 11:30:48;;;;;;;1.47;1.40;;;24.50;42.10;;;;;;5259974;28;20973;-47
2022/07/24 11:33:21;;;;;;;2.90;2.67;;;24.50;42.10;;;;;;5266832;28;20527;-46
2022/07/24 11:35:52;;;;;;;10.40;6.63;;;24.70;41.50;;;;;;5263726;28;20205;-48
2022/07/24 11:38:29;;;;;;;1.80;1.70;;;24.80;41.70;;;;;;5269539;28;20467;-47
2022/07/24 11:41:06;;;;;;;3.80;1.10;;;24.70;41.40;;;;;;5269517;28;20177;-47
2022/07/24 11:43:53;;;;;;;0.87;0.87;;;24.70;41.30;;;;;;5273506;28;20446;-47
2022/07/24 11:46:33;;;;;;;1.50;1.40;;;24.80;42.20;;;;;;5270638;28;20500;-47
2022/07/24 11:49:06;;;;;;;1.80;1.30;;;24.90;42.40;;;;;;5260897;28;20538;-46
2022/07/24 11:51:42;;;;;;;1.67;1.57;;;25.10;41.90;;;;;;5272407;28;20454;-46
2022/07/24 11:54:15;;;;;;;1.40;1.30;;;25.40;42.20;;;;;;5262561;28;20795;-46
2022/07/24 11:56:47;;;;;;;0.93;0.93;;;25.60;41.10;;;;;;5269262;28;20485;-47
2022/07/24 11:59:26;;;;;;;1.80;1.70;;;25.70;40.40;;;;;;5270496;28;20557;-46
2022/07/24 12:02:08;;;;;;;1.30;1.30;;;25.80;40.80;;;;;;5263105;28;20431;-45
2022/07/24 12:04:40;;;;;;;1.00;1.00;;;25.90;40.50;;;;;;5263599;28;20428;-45
2022/07/24 12:07:18;;;;;;;1.73;1.63;;;26.00;40.60;;;;;;5270248;28;20502;-46
2022/07/24 12:09:54;;;;;;;2.70;1.83;;;25.90;40.00;;;;;;5259655;28;20444;-46
2022/07/24 12:12:38;;;;;;;2.60;1.43;;;25.80;40.30;;;;;;5270120;28;20864;-49
2022/07/24 12:15:11;;;;;;;2.20;1.60;;;25.90;40.80;;;;;;5263776;28;20517;-46
2022/07/24 12:18:04;;;;;;;1.90;1.80;;;25.80;39.90;;;;;;5267349;28;20494;-46
2022/07/24 12:20:44;;;;;;;1.50;1.40;;;25.70;40.00;;;;;;5267322;28;20440;-45
2022/07/24 12:23:18;;;;;;;1.33;1.33;;;25.80;40.40;;;;;;5269174;28;20474;-45
2022/07/24 12:25:48;;;;;;;1.03;1.03;;;25.90;40.30;;;;;;5263144;28;20423;-46
2022/07/24 12:28:19;;;;;;;1.40;1.30;;;26.00;40.90;;;;;;5268251;28;20466;-46
2022/07/24 12:30:51;;;;;;;1.93;1.63;;;26.00;40.40;;;;;;5251110;28;20174;-46
2022/07/24 12:33:26;;;;;;;1.33;1.20;;;26.20;40.80;;;;;;5269528;28;20201;-47
2022/07/24 12:35:58;;;;;;;7.83;2.20;;;26.40;40.30;;;;;;5263278;28;20449;-46
2022/07/24 12:38:31;;;;;;;7.80;4.90;;;26.50;40.10;;;;;;5266788;28;20966;-46
2022/07/24 12:41:08;;;;;;;3.63;3.33;;;26.50;39.80;;;;;;5267833;28;20427;-45
2022/07/24 12:43:58;;;;;;;1.73;1.63;;;26.60;39.30;;;;;;5258975;28;20919;-45
2022/07/24 12:46:32;;;;;;;1.20;1.10;;;26.60;39.10;;;;;;5262656;28;20498;-46
2022/07/24 12:49:21;;;;;;;1.03;1.03;;;26.60;38.90;;;;;;5258398;28;20442;-45
2022/07/24 12:51:59;;;;;;;1.37;1.10;;;26.60;37.50;;;;;;5256764;28;20554;-47
2022/07/24 12:54:34;;;;;;;1.13;1.13;;;26.50;38.40;;;;;;5270828;28;20439;-47
2022/07/24 12:57:10;;;;;;;0.80;0.80;;;26.40;39.00;;;;;;5265213;28;20546;-47
2022/07/24 12:59:44;;;;;;;3.07;1.33;;;26.50;39.10;;;;;;5249335;28;20439;-46
2022/07/24 13:02:25;;;;;;;1.60;1.50;;;26.60;39.00;;;;;;5269857;28;20987;-46
2022/07/24 13:04:59;;;;;;;2.20;1.37;;;26.70;38.60;;;;;;5259618;28;20417;-45
2022/07/24 13:07:29;;;;;;;0.97;0.97;;;26.90;38.70;;;;;;5260437;28;20463;-46
2022/07/24 13:10:00;;;;;;;0.90;0.90;;;27.00;38.40;;;;;;5260266;28;20534;-46
2022/07/24 13:12:31;;;;;;;1.10;1.10;;;27.20;37.90;;;;;;5265542;28;20198;-45
2022/07/24 13:15:01;;;;;;;1.50;1.40;;;27.10;37.80;;;;;;5267736;28;20260;-46